Time;durP1;ratioP1;P1;durP2;ratioP2;P2;SDS_P1;SDS_P2;PMS_P1;PMS_P2;Temp;Humidity;BMP_temperature;BMP_pressure;BME280_temperature;BME280_humidity;BME280_pressure;Samples;Min_cycle;Max_cycle;Signal;HPM_P1;HPM_P2
2022/01/03 00:01:29;;;;;;;7.90;0.93;;;;;;;11.85;65.56;98820.28;5033296;28;20033;-70
2022/01/03 00:03:55;;;;;;;2.15;0.50;;;;;;;11.91;65.64;98792.34;5055779;28;20021;-69
2022/01/03 00:06:21;;;;;;;5.95;0.55;;;;;;;11.83;65.41;98800.66;5053219;28;20025;-70
2022/01/03 00:08:47;;;;;;;3.92;0.82;;;;;;;12.03;64.75;98797.94;5040474;28;20083;-70
2022/01/03 00:11:15;;;;;;;2.60;0.70;;;;;;;11.88;64.18;98746.69;5054726;28;20029;-70
2022/01/03 00:13:45;;;;;;;7.43;1.33;;;;;;;12.12;64.00;98783.09;5049723;28;20047;-70
2022/01/03 00:16:11;;;;;;;2.05;0.50;;;;;;;11.96;64.59;98778.16;5037953;28;20097;-70
2022/01/03 00:18:38;;;;;;;10.05;0.95;;;;;;;11.84;63.71;98732.69;5035083;28;20017;-69
2022/01/03 00:21:07;;;;;;;2.83;0.70;;;;;;;11.92;63.49;98728.94;5047075;28;20142;-69
2022/01/03 00:23:36;;;;;;;1.85;0.80;;;;;;;12.02;64.07;98766.44;5035219;28;20032;-70
2022/01/03 00:26:02;;;;;;;3.78;0.80;;;;;;;11.77;63.93;98726.47;5046052;28;20067;-69
2022/01/03 00:28:38;;;;;;;2.38;0.70;;;;;;;11.83;64.71;98757.28;5035511;28;20036;-69
2022/01/03 00:31:05;;;;;;;4.78;0.95;;;;;;;11.90;64.21;98760.84;5034449;28;20040;-69
2022/01/03 00:33:32;;;;;;;3.42;0.95;;;;;;;11.91;64.09;98772.53;5031969;28;20428;-70
2022/01/03 00:36:03;;;;;;;4.28;0.70;;;;;;;11.72;64.59;98763.38;5030916;28;20040;-69
2022/01/03 00:38:34;;;;;;;3.47;0.70;;;;;;;11.90;63.89;98784.44;5037524;28;20789;-69
2022/01/03 00:41:01;;;;;;;4.45;1.13;;;;;;;11.97;63.85;98780.66;5048943;28;20037;-69
2022/01/03 00:43:28;;;;;;;4.60;0.80;;;;;;;12.00;63.45;98798.38;5034527;28;20025;-69
2022/01/03 00:45:54;;;;;;;5.20;0.70;;;;;;;12.14;62.12;98812.72;5039628;28;20141;-69
2022/01/03 00:48:20;;;;;;;5.45;0.70;;;;;;;12.03;62.62;98798.78;5043515;28;20065;-69
2022/01/03 00:50:46;;;;;;;4.75;0.80;;;;;;;12.21;61.54;98810.84;5049939;28;20174;-69
2022/01/03 00:53:12;;;;;;;3.28;0.70;;;;;;;12.13;62.08;98805.63;5049161;28;20226;-69
2022/01/03 00:55:53;;;;;;;4.97;0.80;;;;;;;12.14;61.62;98791.03;5045070;28;20029;-69
2022/01/03 00:58:20;;;;;;;1.88;0.50;;;;;;;12.12;61.83;98795.84;5048758;28;20029;-69
2022/01/03 01:00:50;;;;;;;4.55;1.02;;;;;;;12.12;61.64;98801.25;5042360;28;20043;-69
2022/01/03 01:03:21;;;;;;;7.03;0.93;;;;;;;12.10;61.29;98779.75;5037799;28;20033;-68
2022/01/03 01:05:48;;;;;;;4.38;0.65;;;;;;;12.06;61.68;98797.53;5037911;28;20031;-69
2022/01/03 01:08:26;;;;;;;3.95;0.85;;;;;;;12.00;61.64;98804.63;5040752;28;20013;-69
2022/01/03 01:10:52;;;;;;;5.05;0.80;;;;;;;11.88;62.18;98795.47;5043040;28;20059;-69
2022/01/03 01:13:20;;;;;;;5.00;0.60;;;;;;;11.91;61.98;98786.91;5031879;28;20028;-69
2022/01/03 01:15:45;;;;;;;4.85;0.88;;;;;;;11.77;61.79;98760.88;5042844;28;20025;-68
2022/01/03 01:18:10;;;;;;;4.15;0.57;;;;;;;11.90;62.19;98787.97;5035871;28;20025;-69
2022/01/03 01:20:39;;;;;;;4.97;0.90;;;;;;;11.95;61.97;98788.16;5034523;28;20475;-69
2022/01/03 01:23:06;;;;;;;4.63;0.50;;;;;;;11.81;62.39;98797.31;5048485;28;20116;-70
2022/01/03 01:28:01;;;;;;;;;;;;;;;11.85;62.46;98788.56;5049689;28;20025;-69
2022/01/03 01:30:28;;;;;;;3.65;1.00;;;;;;;11.82;62.61;98818.00;5051895;28;19909;-69
2022/01/03 01:33:09;;;;;;;9.48;1.02;;;;;;;11.74;63.27;98807.38;5038269;28;20395;-69
2022/01/03 01:35:43;;;;;;;2.88;0.75;;;;;;;11.65;63.60;98814.03;5039664;28;20053;-70
2022/01/03 01:38:11;;;;;;;11.43;0.73;;;;;;;11.74;63.34;98815.50;5050999;28;20029;-69
2022/01/03 01:40:54;;;;;;;2.47;0.63;;;;;;;11.57;64.50;98813.19;5047473;28;20045;-70
2022/01/03 01:43:29;;;;;;;13.80;2.03;;;;;;;11.62;63.86;98810.69;5051373;28;20033;-70
2022/01/03 01:45:58;;;;;;;3.95;0.55;;;;;;;11.63;64.69;98812.38;5040920;28;20025;-69
2022/01/03 01:48:24;;;;;;;6.65;0.65;;;;;;;11.51;65.24;98815.94;5053734;28;20029;-69
2022/01/03 01:50:51;;;;;;;5.35;0.60;;;;;;;11.14;65.00;98758.63;5036078;28;20056;-70
2022/01/03 01:53:23;;;;;;;4.82;0.65;;;;;;;11.50;65.82;98812.41;5039799;28;20036;-69
2022/01/03 01:55:51;;;;;;;7.38;0.80;;;;;;;11.68;64.52;98810.91;5033557;28;20021;-69
2022/01/03 01:58:26;;;;;;;9.48;0.80;;;;;;;11.70;64.75;98825.09;5050427;28;20025;-70
2022/01/03 02:00:59;;;;;;;4.72;0.75;;;;;;;11.84;63.87;98824.88;5046570;28;20021;-69
2022/01/03 02:03:45;;;;;;;4.53;0.95;;;;;;;11.83;63.68;98828.59;5044382;28;20036;-70
2022/01/03 02:06:33;;;;;;;7.05;1.02;;;;;;;11.81;63.93;98814.41;5045122;28;20051;-69
2022/01/03 02:09:17;;;;;;;6.88;1.23;;;;;;;11.78;64.21;98830.28;5040553;28;20167;-70
2022/01/03 02:11:48;;;;;;;7.70;0.88;;;;;;;11.75;64.32;98819.88;5032521;28;20036;-70
2022/01/03 02:14:13;;;;;;;7.53;1.15;;;;;;;11.74;64.22;98812.78;5042799;28;20099;-70
2022/01/03 02:16:39;;;;;;;4.18;1.10;;;;;;;11.75;64.25;98836.13;5044865;28;20132;-69
2022/01/03 02:19:05;;;;;;;3.63;0.82;;;;;;;11.76;64.60;98835.94;5043117;28;20155;-70
2022/01/03 02:21:31;;;;;;;6.97;0.90;;;;;;;11.69;64.88;98836.97;5050494;28;20111;-70
2022/01/03 02:23:56;;;;;;;6.40;0.80;;;;;;;11.65;64.82;98838.44;5043979;28;20025;-69
2022/01/03 02:26:21;;;;;;;3.65;0.68;;;;;;;11.62;65.30;98836.97;5046844;28;20119;-70
2022/01/03 02:28:47;;;;;;;6.40;1.42;;;;;;;11.51;65.82;98841.16;5049261;28;20033;-70
2022/01/03 02:31:14;;;;;;;3.60;0.70;;;;;;;11.48;65.67;98836.16;5049565;28;20028;-70
2022/01/03 02:33:40;;;;;;;4.13;0.88;;;;;;;11.50;65.51;98838.63;5051576;28;20029;-70
2022/01/03 02:36:05;;;;;;;7.80;1.00;;;;;;;11.45;64.95;98820.31;5033605;28;20029;-70
2022/01/03 02:38:31;;;;;;;8.75;0.90;;;;;;;11.56;65.53;98851.38;5040990;28;20136;-70
2022/01/03 02:40:56;;;;;;;4.50;1.00;;;;;;;11.54;65.42;98834.47;5047917;28;20028;-70
2022/01/03 02:43:23;;;;;;;4.53;0.90;;;;;;;11.54;65.53;98848.03;5042833;28;20356;-70
2022/01/03 02:45:48;;;;;;;4.75;1.00;;;;;;;11.52;65.63;98847.38;5032451;28;20045;-70
2022/01/03 02:48:14;;;;;;;4.88;0.82;;;;;;;11.27;65.63;98823.63;5042833;28;20426;-70
2022/01/03 02:50:39;;;;;;;8.88;1.23;;;;;;;11.38;65.68;98822.19;5049396;28;20072;-70
2022/01/03 02:53:05;;;;;;;4.72;0.68;;;;;;;11.30;66.10;98834.06;5049891;28;20515;-70
2022/01/03 02:55:31;;;;;;;6.20;1.00;;;;;;;11.41;66.14;98857.81;5045046;28;20040;-70
2022/01/03 02:58:05;;;;;;;3.88;0.75;;;;;;;11.47;65.58;98861.56;5033215;28;20026;-70
2022/01/03 03:00:32;;;;;;;1.48;0.80;;;;;;;11.37;66.51;98855.72;5044142;28;20025;-70
2022/01/03 03:02:57;;;;;;;5.20;0.77;;;;;;;11.34;66.61;98861.53;5041086;28;20024;-70
2022/01/03 03:05:23;;;;;;;4.75;0.60;;;;;;;11.36;66.72;98854.88;5048370;28;20031;-70
2022/01/03 03:07:49;;;;;;;6.72;0.90;;;;;;;11.23;67.29;98870.28;5046527;28;20033;-69
2022/01/03 03:10:17;;;;;;;3.83;0.68;;;;;;;11.14;66.83;98840.69;5042938;28;20034;-70
2022/01/03 03:12:43;;;;;;;5.78;0.93;;;;;;;11.33;66.62;98866.13;5040981;28;20423;-70
2022/01/03 03:15:10;;;;;;;6.78;1.02;;;;;;;11.28;66.92;98873.22;5044059;28;20090;-70
2022/01/03 03:17:36;;;;;;;11.50;1.15;;;;;;;11.33;66.58;98860.72;5048429;28;20087;-69
2022/01/03 03:20:07;;;;;;;4.75;0.80;;;;;;;11.28;66.84;98867.78;5031720;28;20013;-70
2022/01/03 03:22:33;;;;;;;7.63;1.00;;;;;;;11.19;67.15;98864.47;5039174;28;20104;-70
2022/01/03 03:25:19;;;;;;;6.13;0.80;;;;;;;11.13;67.63;98865.25;5039953;28;20638;-70
2022/01/03 03:27:48;;;;;;;4.53;0.80;;;;;;;11.26;66.61;98864.47;5037171;28;20054;-69
2022/01/03 03:30:17;;;;;;;4.75;0.88;;;;;;;11.23;67.13;98868.41;5031818;28;20040;-70
2022/01/03 03:32:44;;;;;;;7.80;0.95;;;;;;;11.15;67.73;98869.44;5033005;28;20532;-70
2022/01/03 03:35:10;;;;;;;5.85;0.80;;;;;;;10.87;68.05;98839.81;5039211;28;20490;-70
2022/01/03 03:37:36;;;;;;;4.30;0.90;;;;;;;10.95;68.46;98879.38;5051137;28;20455;-70
2022/01/03 03:40:02;;;;;;;9.52;1.33;;;;;;;10.91;68.71;98870.84;5051533;28;20025;-70
2022/01/03 03:42:27;;;;;;;4.18;0.90;;;;;;;11.05;67.79;98874.41;5033324;28;20021;-70
2022/01/03 03:44:52;;;;;;;6.72;0.90;;;;;;;11.04;67.77;98870.03;5032683;28;20128;-70
2022/01/03 03:47:18;;;;;;;4.30;0.80;;;;;;;10.89;68.07;98832.31;5036228;28;20052;-70
2022/01/03 03:49:43;;;;;;;6.55;0.90;;;;;;;11.07;67.74;98856.09;5047634;28;20025;-71
2022/01/03 03:52:08;;;;;;;9.65;1.00;;;;;;;11.09;67.76;98880.28;5030637;28;20037;-69
2022/01/03 03:54:34;;;;;;;3.42;1.15;;;;;;;10.99;68.46;98864.41;5030990;28;20135;-70
2022/01/03 03:57:01;;;;;;;6.55;0.77;;;;;;;10.91;68.80;98867.31;5031099;28;20125;-70
2022/01/03 03:59:26;;;;;;;4.75;0.95;;;;;;;10.86;69.25;98880.63;5045705;28;20021;-70
2022/01/03 04:01:53;;;;;;;4.25;0.50;;;;;;;10.90;68.79;98871.91;5049411;28;20043;-70
2022/01/03 04:04:19;;;;;;;4.28;0.68;;;;;;;10.91;68.77;98878.13;5033670;28;20025;-70
2022/01/03 04:06:45;;;;;;;7.43;0.90;;;;;;;10.84;68.99;98855.63;5045804;28;20437;-69
2022/01/03 04:09:11;;;;;;;3.25;0.82;;;;;;;10.91;68.99;98870.00;5047525;28;20399;-70
2022/01/03 04:11:36;;;;;;;7.90;1.08;;;;;;;10.91;68.93;98862.72;5033141;28;20033;-70
2022/01/03 04:14:01;;;;;;;4.97;0.73;;;;;;;10.88;69.57;98883.97;5030855;28;21319;-70
2022/01/03 04:16:27;;;;;;;10.20;1.20;;;;;;;10.87;70.06;98876.84;5050333;28;20021;-69
2022/01/03 04:18:52;;;;;;;9.43;1.33;;;;;;;10.89;69.40;98874.78;5034260;28;20022;-70
2022/01/03 04:21:18;;;;;;;6.93;0.98;;;;;;;11.01;68.81;98877.75;5030657;28;20025;-70
2022/01/03 04:23:43;;;;;;;4.43;1.25;;;;;;;11.06;68.24;98870.69;5031686;28;20036;-70
2022/01/03 04:26:09;;;;;;;6.28;1.55;;;;;;;10.99;68.73;98869.00;5039026;28;20029;-70
2022/01/03 04:28:34;;;;;;;6.88;1.15;;;;;;;11.09;68.11;98875.69;5048475;28;20463;-70
2022/01/03 04:31:00;;;;;;;8.25;1.08;;;;;;;11.03;68.63;98879.22;5050454;28;20028;-70
2022/01/03 04:33:26;;;;;;;4.85;1.00;;;;;;;10.94;68.21;98862.31;5036185;28;20395;-69
2022/01/03 04:35:51;;;;;;;7.95;0.90;;;;;;;11.03;67.95;98875.66;5041499;28;20695;-70
2022/01/03 04:38:18;;;;;;;11.90;1.25;;;;;;;11.05;67.64;98890.66;5048192;28;20033;-70
2022/01/03 04:40:43;;;;;;;5.80;0.95;;;;;;;10.92;68.45;98885.22;5034620;28;20026;-70
2022/01/03 04:43:08;;;;;;;5.97;1.00;;;;;;;10.89;68.56;98899.16;5030945;28;20519;-70
2022/01/03 04:45:34;;;;;;;5.85;1.05;;;;;;;10.90;68.53;98900.84;5037404;28;20400;-70
2022/01/03 04:47:59;;;;;;;6.97;0.85;;;;;;;10.90;67.90;98904.38;5040703;28;20037;-70
2022/01/03 04:50:24;;;;;;;4.80;0.75;;;;;;;10.66;68.18;98862.44;5030943;28;20026;-70
2022/01/03 04:52:50;;;;;;;6.22;1.00;;;;;;;10.84;68.51;98898.91;5038084;28;20034;-70
2022/01/03 04:55:15;;;;;;;4.28;0.80;;;;;;;10.82;68.96;98901.00;5045678;28;20344;-67
2022/01/03 04:57:40;;;;;;;7.43;1.02;;;;;;;10.73;69.56;98917.41;5033484;28;20104;-70
2022/01/03 05:00:08;;;;;;;4.03;0.80;;;;;;;10.55;69.90;98895.47;5040511;28;20103;-69
2022/01/03 05:02:36;;;;;;;8.98;1.13;;;;;;;10.45;70.26;98876.94;5044964;28;20044;-70
2022/01/03 05:05:01;;;;;;;3.97;0.75;;;;;;;10.62;70.69;98900.94;5031346;28;20025;-71
2022/01/03 05:07:27;;;;;;;10.65;1.05;;;;;;;10.61;71.10;98907.34;5037685;28;20025;-69
2022/01/03 05:09:52;;;;;;;5.22;0.80;;;;;;;10.37;72.62;98897.88;5049176;28;20041;-71
2022/01/03 05:12:18;;;;;;;5.75;0.80;;;;;;;10.30;74.07;98897.84;5045806;28;20079;-70
2022/01/03 05:14:44;;;;;;;4.00;0.60;;;;;;;10.17;75.74;98920.19;5058309;28;20077;-69
2022/01/03 05:17:09;;;;;;;5.68;0.80;;;;;;;10.01;77.60;98921.34;5057557;28;20024;-70
2022/01/03 05:19:35;;;;;;;5.00;0.95;;;;;;;9.75;78.05;98910.34;5045678;28;20123;-70
2022/01/03 05:22:00;;;;;;;2.58;0.55;;;;;;;9.83;77.86;98908.31;5042018;28;20079;-69
2022/01/03 05:24:26;;;;;;;1.20;0.32;;;;;;;9.80;78.14;98926.78;5039096;28;20081;-68
2022/01/03 05:26:51;;;;;;;5.38;0.70;;;;;;;9.79;78.24;98917.00;5052086;28;20432;-68
2022/01/03 05:29:16;;;;;;;4.80;0.93;;;;;;;9.80;78.60;98918.69;5056219;28;20049;-69
2022/01/03 05:31:42;;;;;;;9.48;1.00;;;;;;;9.75;79.40;98926.53;5040096;28;20535;-69
2022/01/03 05:34:07;;;;;;;5.43;0.75;;;;;;;9.63;80.47;98915.41;5046355;28;20032;-69
2022/01/03 05:36:32;;;;;;;4.30;0.70;;;;;;;9.57;81.44;98906.22;5053524;28;20025;-67
2022/01/03 05:38:58;;;;;;;3.67;0.80;;;;;;;9.57;81.71;98908.94;5039891;28;20067;-69
2022/01/03 05:41:23;;;;;;;3.33;0.75;;;;;;;9.34;82.84;98882.13;5064764;28;20032;-68
2022/01/03 05:43:49;;;;;;;3.40;0.73;;;;;;;9.42;84.02;98909.00;5046376;28;20128;-68
2022/01/03 05:46:14;;;;;;;5.28;1.10;;;;;;;9.38;84.70;98904.19;5041377;28;20033;-67
2022/01/03 05:48:40;;;;;;;5.97;1.08;;;;;;;9.28;85.34;98907.19;5037853;28;20025;-66
2022/01/03 05:51:06;;;;;;;5.93;0.70;;;;;;;9.16;86.39;98906.84;5046147;28;20032;-68
2022/01/03 05:53:31;;;;;;;4.35;0.90;;;;;;;9.12;87.62;98913.69;5059426;28;20052;-67
2022/01/03 05:55:58;;;;;;;4.75;0.82;;;;;;;9.10;88.66;98918.44;5041903;28;20124;-66
2022/01/03 05:58:23;;;;;;;8.77;1.17;;;;;;;9.08;88.91;98923.19;5037249;28;20087;-69
2022/01/03 06:00:49;;;;;;;8.48;1.65;;;;;;;8.98;89.56;98904.59;5039868;28;20056;-70
2022/01/03 06:03:17;;;;;;;4.00;0.70;;;;;;;8.90;90.03;98902.00;5046763;28;20507;-70
2022/01/03 06:06:16;;;;;;;4.67;0.70;;;;;;;9.00;90.81;98934.09;5037182;28;20095;-71
2022/01/03 06:08:28;;;;;;;5.00;1.08;;;;;;;9.00;91.25;98924.13;5039308;28;20288;-72
2022/01/03 06:10:54;;;;;;;5.85;1.00;;;;;;;8.96;91.58;98922.84;5039645;28;20118;-73
2022/01/03 06:13:20;;;;;;;4.18;0.70;;;;;;;8.75;92.31;98893.97;5034253;28;20037;-71
2022/01/03 06:15:45;;;;;;;5.97;0.70;;;;;;;8.84;92.32;98904.66;5032528;28;20486;-73
2022/01/03 06:18:15;;;;;;;7.50;0.90;;;;;;;8.77;92.36;98901.84;5044200;28;20108;-73
2022/01/03 06:20:42;;;;;;;5.78;0.90;;;;;;;8.92;92.95;98934.22;5063023;28;20024;-71
2022/01/03 06:23:09;;;;;;;3.95;0.85;;;;;;;8.90;93.18;98934.38;5047857;28;20029;-73
2022/01/03 06:25:35;;;;;;;9.38;1.02;;;;;;;8.67;93.33;98891.38;5056425;28;20514;-73
2022/01/03 06:28:00;;;;;;;10.45;1.10;;;;;;;8.82;93.25;98921.00;5069926;28;20104;-69
2022/01/03 06:30:26;;;;;;;6.38;1.50;;;;;;;8.89;93.24;98916.53;5063586;28;20028;-70
2022/01/03 06:32:51;;;;;;;8.25;0.88;;;;;;;8.87;92.87;98915.06;5082022;28;20016;-69
2022/01/03 06:35:17;;;;;;;4.53;0.90;;;;;;;8.82;93.28;98906.69;5058174;28;20108;-72
2022/01/03 06:37:42;;;;;;;5.88;0.95;;;;;;;8.87;92.83;98890.78;5042594;28;20021;-71
2022/01/03 06:40:08;;;;;;;8.15;1.60;;;;;;;8.61;92.72;98873.25;5036441;28;20033;-71
2022/01/03 06:42:33;;;;;;;8.05;0.90;;;;;;;8.81;92.69;98902.34;5037266;28;20016;-72
2022/01/03 06:44:59;;;;;;;6.47;1.05;;;;;;;8.75;92.92;98893.97;5034413;28;20029;-71
2022/01/03 06:47:25;;;;;;;5.05;1.35;;;;;;;8.66;93.18;98889.69;5047858;28;20047;-71
2022/01/03 06:49:51;;;;;;;3.58;0.90;;;;;;;8.50;93.43;98869.16;5045825;28;20053;-69
2022/01/03 06:52:17;;;;;;;5.72;1.15;;;;;;;8.60;93.60;98901.25;5047886;28;20029;-75
2022/01/03 06:54:43;;;;;;;6.57;1.10;;;;;;;8.65;93.16;98908.78;5043429;28;20053;-70
2022/01/03 06:57:08;;;;;;;7.05;0.85;;;;;;;8.49;92.66;98883.69;5040750;28;20076;-72
2022/01/03 06:59:34;;;;;;;7.68;1.02;;;;;;;8.63;92.27;98891.94;5046832;28;20482;-68
2022/01/03 07:01:59;;;;;;;9.15;1.23;;;;;;;8.56;91.34;98870.28;5053306;28;20061;-67
2022/01/03 07:04:25;;;;;;;4.90;0.93;;;;;;;8.75;90.61;98890.41;5047941;28;20025;-69
2022/01/03 07:06:50;;;;;;;7.90;1.27;;;;;;;8.95;90.22;98899.56;5052404;28;20053;-69
2022/01/03 07:09:15;;;;;;;9.43;1.17;;;;;;;8.91;89.82;98889.38;5052560;28;20032;-70
2022/01/03 07:11:41;;;;;;;12.35;1.50;;;;;;;8.78;89.45;98876.56;5046618;28;20016;-70
2022/01/03 07:19:32;;;;;;;6.88;1.88;;;;;;;9.04;89.65;98929.13;5036969;28;20032;-68
2022/01/03 07:21:58;;;;;;;5.00;1.05;;;;;;;8.81;90.28;98899.63;5050610;28;20024;-70
2022/01/03 07:24:24;;;;;;;7.20;1.20;;;;;;;9.03;90.25;98914.00;5066496;28;20025;-69
2022/01/03 07:26:49;;;;;;;5.47;1.10;;;;;;;8.95;90.62;98920.34;5055139;28;20394;-66
2022/01/03 07:29:14;;;;;;;8.85;0.93;;;;;;;8.87;91.06;98931.25;5036361;28;20079;-67
2022/01/03 07:31:39;;;;;;;5.60;0.95;;;;;;;8.92;90.61;98920.72;5044349;28;20037;-70
2022/01/03 07:34:05;;;;;;;7.20;1.02;;;;;;;8.89;90.22;98900.34;5047901;28;20483;-70
2022/01/03 07:36:30;;;;;;;12.18;1.00;;;;;;;9.02;90.67;98917.72;5034717;28;20025;-70
2022/01/03 07:38:56;;;;;;;8.98;0.98;;;;;;;8.69;91.13;98875.00;5034664;28;20021;-70
2022/01/03 07:41:21;;;;;;;6.47;1.08;;;;;;;8.95;90.71;98921.16;5044065;28;20028;-70
2022/01/03 07:43:47;;;;;;;7.70;1.38;;;;;;;8.95;91.15;98926.56;5051577;28;20127;-70
2022/01/03 07:46:13;;;;;;;12.02;1.50;;;;;;;8.99;90.46;98917.06;5047904;28;20554;-69
2022/01/03 07:48:38;;;;;;;3.40;1.00;;;;;;;9.05;90.06;98911.94;5056745;28;20046;-71
2022/01/03 07:51:03;;;;;;;10.48;2.70;;;;;;;9.06;90.92;98910.91;5049262;28;20067;-70
2022/01/03 07:53:29;;;;;;;8.27;0.95;;;;;;;8.99;92.71;98908.97;5065050;28;20016;-71
2022/01/03 07:55:56;;;;;;;12.20;1.88;;;;;;;8.89;93.46;98915.72;5064549;28;20025;-69
2022/01/03 07:58:22;;;;;;;5.25;0.90;;;;;;;8.83;94.64;98911.91;5033683;28;20112;-71
2022/01/03 08:00:47;;;;;;;9.02;1.00;;;;;;;8.80;94.47;98908.72;5036804;28;20121;-69
2022/01/03 08:03:13;;;;;;;4.07;1.17;;;;;;;8.70;94.03;98891.00;5049768;28;20021;-69
2022/01/03 08:05:38;;;;;;;9.35;1.10;;;;;;;8.78;94.50;98901.69;5041964;28;20030;-69
2022/01/03 08:08:08;;;;;;;8.25;0.90;;;;;;;8.69;94.67;98900.09;5048099;28;20025;-69
2022/01/03 08:10:34;;;;;;;4.07;1.00;;;;;;;8.71;94.65;98895.34;5045120;28;20020;-69
2022/01/03 08:13:00;;;;;;;10.48;1.27;;;;;;;8.73;96.23;98919.47;5041722;28;20068;-69
2022/01/03 08:15:25;;;;;;;7.22;0.80;;;;;;;8.73;97.13;98916.75;5046745;28;20044;-70
2022/01/03 08:17:50;;;;;;;8.20;1.27;;;;;;;8.65;98.24;98931.19;5036575;28;20033;-71
2022/01/03 08:20:15;;;;;;;7.57;1.58;;;;;;;8.64;98.70;98925.97;5038100;28;20029;-67
2022/01/03 08:22:41;;;;;;;11.45;1.10;;;;;;;8.64;100.00;98920.56;5044893;28;20413;-68
2022/01/03 08:25:06;;;;;;;5.32;1.00;;;;;;;8.59;99.95;98909.50;5048632;28;20024;-69
2022/01/03 08:27:32;;;;;;;6.38;0.95;;;;;;;8.55;99.42;98907.19;5037310;28;20036;-69
2022/01/03 08:29:57;;;;;;;5.97;1.08;;;;;;;8.60;99.91;98905.81;5044414;28;20024;-69
2022/01/03 08:32:22;;;;;;;5.60;0.93;;;;;;;8.62;100.00;98895.66;5051408;28;20025;-69
2022/01/03 08:34:48;;;;;;;11.90;1.00;;;;;;;8.66;99.13;98902.34;5043370;28;20106;-66
2022/01/03 08:37:14;;;;;;;5.28;0.77;;;;;;;8.70;99.25;98903.66;5032759;28;20029;-68
2022/01/03 08:39:39;;;;;;;5.10;0.85;;;;;;;8.75;99.02;98914.69;5052469;28;20424;-71
2022/01/03 08:42:05;;;;;;;8.35;0.93;;;;;;;8.73;98.77;98912.19;5047797;28;20463;-66
2022/01/03 08:44:30;;;;;;;9.20;1.02;;;;;;;8.73;97.75;98919.47;5047427;28;20040;-67
2022/01/03 08:46:55;;;;;;;7.82;1.88;;;;;;;8.61;98.76;98902.06;5030201;28;20025;-67
2022/01/03 08:49:20;;;;;;;8.18;1.60;;;;;;;8.75;99.20;98925.47;5038205;28;20034;-70
2022/01/03 08:51:46;;;;;;;5.43;1.90;;;;;;;8.71;99.10;98924.19;5048499;28;20033;-70
2022/01/03 08:54:12;;;;;;;6.05;1.88;;;;;;;8.74;98.95;98923.81;5040365;28;20021;-70
2022/01/03 08:56:38;;;;;;;5.60;1.05;;;;;;;8.76;99.56;98919.06;5044724;28;20052;-74
2022/01/03 08:59:05;;;;;;;5.63;0.98;;;;;;;8.71;99.07;98899.94;5056707;28;20021;-69
2022/01/03 09:01:30;;;;;;;6.78;1.05;;;;;;;8.80;99.09;98925.75;5039246;28;20039;-70
2022/01/03 09:03:55;;;;;;;7.57;0.95;;;;;;;8.95;98.91;98915.75;5034956;28;20108;-69
2022/01/03 09:06:21;;;;;;;9.00;1.10;;;;;;;9.00;98.22;98913.34;5041630;28;20466;-71
2022/01/03 09:08:47;;;;;;;9.35;1.30;;;;;;;9.00;98.00;98913.34;5038844;28;20045;-70
2022/01/03 09:11:13;;;;;;;5.53;1.33;;;;;;;8.90;96.97;98879.59;5039742;28;20037;-71
2022/01/03 09:13:38;;;;;;;10.90;1.80;;;;;;;9.05;97.83;98898.44;5039688;28;20025;-73
2022/01/03 09:16:06;;;;;;;8.27;1.42;;;;;;;9.06;98.53;98905.50;5051493;28;20479;-71
2022/01/03 09:18:34;;;;;;;9.93;1.38;;;;;;;8.88;99.30;98881.63;5056128;28;20053;-71
2022/01/03 09:20:59;;;;;;;9.48;1.40;;;;;;;8.75;99.68;98866.13;5056147;28;20025;-73
2022/01/03 09:23:27;;;;;;;7.78;1.92;;;;;;;8.79;99.74;98875.53;5044473;28;20039;-70
2022/01/03 09:28:48;;;;;;;10.35;1.65;;;;;;;8.99;98.46;98894.66;5039125;28;20040;-70
2022/01/03 09:31:14;;;;;;;6.78;2.25;;;;;;;9.11;98.65;98894.97;5036815;28;20025;-71
2022/01/03 09:33:39;;;;;;;13.02;2.15;;;;;;;8.95;97.76;98859.09;5050688;28;20506;-72
2022/01/03 09:36:05;;;;;;;11.40;2.38;;;;;;;9.15;97.02;98877.38;5046117;28;20490;-71
2022/01/03 09:38:30;;;;;;;8.85;2.28;;;;;;;8.95;96.17;98834.81;5048354;28;20024;-68
2022/01/03 09:41:02;;;;;;;8.40;2.33;;;;;;;9.37;96.02;98886.31;5058888;28;20494;-70
2022/01/03 09:43:28;;;;;;;11.98;2.75;;;;;;;9.16;95.96;98871.78;5041736;28;20044;-69
2022/01/03 09:45:54;;;;;;;12.05;2.38;;;;;;;9.46;95.33;98890.56;5049575;28;20037;-66
2022/01/03 09:48:21;;;;;;;6.93;1.80;;;;;;;9.51;95.67;98890.81;5050813;28;20040;-69
2022/01/03 09:50:47;;;;;;;9.55;2.17;;;;;;;9.19;94.96;98841.69;5036835;28;20033;-71
2022/01/03 09:53:13;;;;;;;9.45;1.90;;;;;;;9.45;95.35;98883.47;5034127;28;20029;-71
2022/01/03 09:55:39;;;;;;;8.90;1.50;;;;;;;9.52;91.19;98892.47;5035804;28;20480;-71
2022/01/03 09:58:05;;;;;;;10.02;2.13;;;;;;;9.66;92.64;98890.69;5045552;28;20025;-71
2022/01/03 10:00:30;;;;;;;9.82;2.25;;;;;;;9.55;92.22;98862.38;5049962;28;20025;-70
2022/01/03 10:02:56;;;;;;;9.77;1.42;;;;;;;9.59;92.77;98887.13;5036165;28;20107;-69
2022/01/03 10:05:22;;;;;;;6.72;2.00;;;;;;;9.54;92.78;98889.59;5038191;28;20032;-68
2022/01/03 10:07:48;;;;;;;10.13;2.30;;;;;;;9.32;92.33;98845.53;5044605;28;20486;-69
2022/01/03 10:10:14;;;;;;;14.80;1.63;;;;;;;9.51;91.94;98888.09;5041049;28;20411;-69
2022/01/03 10:12:40;;;;;;;7.93;2.03;;;;;;;9.59;91.16;98881.72;5037917;28;20062;-69
2022/01/03 10:15:08;;;;;;;10.80;2.03;;;;;;;9.72;89.59;98879.13;5042179;28;20048;-68
2022/01/03 10:17:37;;;;;;;11.10;1.80;;;;;;;9.76;89.52;98875.00;5040357;28;20056;-69
2022/01/03 10:20:05;;;;;;;7.93;2.05;;;;;;;9.84;89.84;98882.94;5036428;28;20030;-71
2022/01/03 10:22:33;;;;;;;9.90;1.80;;;;;;;9.82;89.67;98885.03;5038639;28;20033;-69
2022/01/03 10:25:10;;;;;;;8.35;1.88;;;;;;;9.80;88.56;98879.00;5035290;28;20025;-70
2022/01/03 10:27:56;;;;;;;9.95;1.60;;;;;;;9.91;87.83;98883.00;5038322;28;20530;-71
2022/01/03 10:30:48;;;;;;;11.77;1.95;;;;;;;9.87;88.62;98881.72;5034498;28;20045;-69
2022/01/03 10:33:19;;;;;;;10.45;1.70;;;;;;;10.02;88.70;98881.63;5043223;28;20446;-70
2022/01/03 10:35:51;;;;;;;8.05;1.40;;;;;;;10.00;87.96;98886.38;5033409;28;20025;-69
2022/01/03 10:38:33;;;;;;;6.55;1.25;;;;;;;9.92;86.94;98852.25;5032085;28;20029;-75
2022/01/03 10:41:28;;;;;;;6.15;1.58;;;;;;;10.04;86.69;98864.19;5036600;28;20029;-75
2022/01/03 10:43:58;;;;;;;5.43;1.60;;;;;;;10.12;87.67;98876.69;5030835;28;20100;-69
2022/01/03 10:46:30;;;;;;;9.88;1.40;;;;;;;10.22;86.97;98857.44;5033411;28;20041;-72
2022/01/03 10:49:18;;;;;;;7.88;1.50;;;;;;;10.09;86.66;98859.00;5035637;28;20116;-70
2022/01/03 10:51:44;;;;;;;6.43;1.50;;;;;;;10.18;84.05;98856.97;5038796;28;20079;-72
2022/01/03 10:54:12;;;;;;;8.15;2.03;;;;;;;10.19;84.89;98853.25;5049716;28;20041;-69
2022/01/03 10:56:40;;;;;;;8.32;1.45;;;;;;;10.26;83.65;98845.16;5057640;28;20040;-72
2022/01/03 10:59:12;;;;;;;6.28;1.35;;;;;;;10.39;82.08;98852.53;5054042;28;20016;-72
2022/01/03 11:01:37;;;;;;;6.90;1.67;;;;;;;10.24;83.18;98834.56;5038715;28;20473;-72
2022/01/03 11:04:03;;;;;;;6.85;1.17;;;;;;;10.31;83.44;98837.31;5031374;28;20124;-75
2022/01/03 11:11:39;;;;;;;7.65;1.55;;;;;;;10.54;82.55;98842.41;5035715;28;20035;-73
2022/01/03 11:14:05;;;;;;;10.32;1.52;;;;;;;10.56;81.90;98839.50;5043799;28;20083;-69
2022/01/03 11:16:42;;;;;;;9.32;1.10;;;;;;;10.53;81.56;98811.84;5046222;28;20029;-68
2022/01/03 11:19:08;;;;;;;9.05;1.52;;;;;;;10.56;82.39;98832.22;5040902;28;20025;-71
2022/01/03 11:21:43;;;;;;;9.45;1.33;;;;;;;10.56;81.67;98837.66;5044493;28;20028;-71
2022/01/03 11:24:11;;;;;;;5.25;1.20;;;;;;;10.70;81.29;98827.69;5039568;28;20037;-70
2022/01/03 11:26:47;;;;;;;8.68;1.70;;;;;;;10.37;81.31;98768.06;5042692;28;20024;-73
2022/01/03 11:29:13;;;;;;;6.93;1.30;;;;;;;10.85;80.77;98814.00;5036644;28;20860;-72
2022/01/03 11:31:39;;;;;;;6.55;1.55;;;;;;;10.75;79.81;98785.44;5033534;28;20499;-72
2022/01/03 11:34:10;;;;;;;11.38;1.80;;;;;;;10.92;80.04;98804.81;5042014;28;20033;-69
2022/01/03 11:36:38;;;;;;;9.07;1.35;;;;;;;10.93;79.79;98809.22;5033336;28;20029;-68
2022/01/03 11:39:08;;;;;;;10.05;2.00;;;;;;;10.79;79.46;98779.63;5028389;28;20048;-70
2022/01/03 11:41:44;;;;;;;4.85;1.52;;;;;;;11.10;78.64;98800.69;5039997;28;20050;-70
2022/01/03 11:44:12;;;;;;;7.78;1.98;;;;;;;11.03;78.17;98795.28;5039694;28;20033;-70
2022/01/03 11:46:41;;;;;;;8.00;2.10;;;;;;;11.05;78.24;98800.47;5033593;28;20491;-69
2022/01/03 11:49:07;;;;;;;;;;;;;;;11.03;78.42;98781.75;5030529;28;20033;-68
2022/01/03 11:51:34;;;;;;;10.52;3.05;;;;;;;11.05;78.67;98771.53;5035858;28;20675;-69
2022/01/03 11:54:02;;;;;;;15.35;2.90;;;;;;;11.01;78.64;98774.88;5032011;28;20025;-69